FYOA

Ondangwa Airport

Airport
ICAO code
FYOA
IATA Code
OND
Summary
ICAO Region
AFI
ICAO Territory
Location

Ondangwa, Oshana

Serving
Ondangwa
Elevation
3599 ft
Coordinates
17° 52' 50" S , 15° 56' 51" E
KCC
Metar
FYOA 272100Z AUTO 05002KT //// // ////// 17/03 Q1020

International airport serving northern Namibia.

Climatology

Warm, semi-arid/Steppe climate (Köppen climate classification BSh)

Runways

Designator Length Width Surface Rops
16/34 1348 30 GVL No/No
8/26 2987 30 ASP No/No

Airport map

Aerial View

SKYbrary Partners:

Safety knowledge contributed by: